Jeanie G — WDB2354 — position and weather

sailwx.info

Track history (hours):
 
Tides and Currents Weather Stations Pressure Air Temp Water Temp Dewpoint Dewpoint Depression Visibility Wind Speed Wind Dir Waves Ship Positions

Jeanie G

Owner: MARTIN OPERATING PARTNERSHIP LP, VIDOR, TX. More information available from US FCC via Universal Licensing System and Coast Guard Vessel Documentation Center.

Last reported at 2015-May-03 16:08 UTC. Time now 2015-May-05 09:12 UTC.
Position N 29°32' W 090°51'.

MMSI: 366875010.

Date/timePositionNaut miles runAvg speedWind from/ knotsBaromVisibWave heightAir tempDewpointWater temp
2015-May-03 16:08N 29°32' W 090°51'3 4.8
2015-May-03 15:33N 29°32' W 090°48'3 2.9
2015-May-03 14:33N 29°33' W 090°45'2 2.1
2015-May-03 13:34N 29°34' W 090°43'3 2.6
2015-May-03 12:33N 29°37' W 090°42'5 5.0
2015-May-03 11:33N 29°35' W 090°37'6 5.7
2015-May-03 10:33N 29°34' W 090°31'6 5.6
2015-May-03 09:26N 29°34' W 090°23'22 3.5
2015-May-03 03:06N 29°48' W 090°04'6 3.8
2015-May-03 01:29N 29°55' W 090°05'0 0.2
2015-May-03 00:18N 29°55' W 090°05'1 1.0
2015-May-02 23:31N 29°55' W 090°04'3 3.5
2015-May-02 22:31N 29°58' W 090°02'0 0.4
2015-May-02 21:30N 29°58' W 090°02'0 0.0
2015-May-02 20:32N 29°58' W 090°02'0 0.0
2015-May-02 19:25N 29°58' W 090°02'1 1.6
2015-May-02 18:33N 29°60' W 090°01'0 0.0
2015-May-02 17:33N 29°60' W 090°01'0 0.3
2015-May-02 16:32N 29°60' W 090°01'0 0.0
2015-May-02 15:31N 29°60' W 090°01'0 0.0
2015-May-02 14:32N 29°60' W 090°01'0 0.0
2015-May-02 13:33N 29°60' W 090°01'0 0.0
2015-May-02 12:32N 29°60' W 090°01'0 0.0
2015-May-02 11:32N 29°60' W 090°01'0 0.0
2015-May-02 10:31N 29°60' W 090°01'0 0.0
2015-May-02 09:33N 29°60' W 090°01'0 0.0
2015-May-02 08:33N 29°60' W 090°01'0 0.0
2015-May-02 07:31N 29°60' W 090°01'0 0.0
2015-May-02 06:32N 29°60' W 090°01'0 0.0
2015-May-02 05:31N 29°60' W 090°01'0 0.0
2015-May-02 04:23N 29°60' W 090°01'0 0.0
2015-May-02 03:20N 29°60' W 090°01'0 0.0
2015-May-02 02:08N 29°60' W 090°01'0 0.0
2015-May-01 08:23N 29°60' W 090°00'0 0.0
2015-May-01 06:21N 29°60' W 090°00'0 0.0
2015-May-01 04:21N 29°60' W 090°00'0 0.0
2015-May-01 03:05N 29°60' W 090°00'0 0.3
2015-May-01 02:29N 29°60' W 090°00'6 5.9
2015-May-01 01:31N 30°01' W 089°54'3 0.1
2015-Apr-29 04:32N 30°02' W 089°50'5 5.1
2015-Apr-29 03:28N 30°00' W 089°56'4 4.8
2015-Apr-29 02:32N 29°59' W 090°01'2 1.7
2015-Apr-29 01:33N 29°58' W 090°02'0 0.0
2015-Apr-29 00:32N 29°58' W 090°02'0 0.0
2015-Apr-28 23:33N 29°58' W 090°02'2 2.1
2015-Apr-28 22:32N 29°56' W 090°00'0 0.0
2015-Apr-28 21:33N 29°56' W 090°00'0 0.0
2015-Apr-28 20:33N 29°56' W 089°60'2 1.6
2015-Apr-28 19:32N 29°56' W 089°58'0 0.0
2015-Apr-28 18:33N 29°56' W 089°58'0 0.0
2015-Apr-28 17:33N 29°56' W 089°58'0 0.0
2015-Apr-28 16:32N 29°56' W 089°58'0 0.0
2015-Apr-28 15:25N 29°56' W 089°58'0 0.0
2015-Apr-28 14:32N 29°56' W 089°58'0 0.2
2015-Apr-28 13:30N 29°56' W 089°58'0 0.2
2015-Apr-28 12:32N 29°56' W 089°58'4 0.1
2015-Apr-27 08:26N 29°58' W 090°02'0 0.0
2015-Apr-27 07:08N 29°58' W 090°02'0 0.3
2015-Apr-27 06:29N 29°58' W 090°02'3 2.1
2015-Apr-27 05:15N 29°60' W 089°59'0 0.0
2015-Apr-27 04:20N 29°60' W 089°59'0 0.0
2015-Apr-27 03:33N 29°60' W 089°59'0 0.0
2015-Apr-27 02:32N 29°60' W 089°59'0 0.0
2015-Apr-27 01:18N 29°60' W 089°59'0 0.0
2015-Apr-27 00:24N 29°60' W 089°59'0 0.0
2015-Apr-26 23:33N 29°60' W 089°59'0 0.0
2015-Apr-26 22:31N 29°60' W 089°59'0 0.0
2015-Apr-26 21:31N 29°60' W 089°59'0 0.0
2015-Apr-26 20:33N 29°60' W 089°59'0 0.0
2015-Apr-26 19:32N 29°60' W 089°59'0 0.0
2015-Apr-26 18:32N 29°60' W 089°59'0 0.0
2015-Apr-26 17:33N 29°60' W 089°59'0 0.0
2015-Apr-26 16:32N 29°60' W 089°59'0 0.0
2015-Apr-26 15:33N 29°60' W 089°59'0 0.0
2015-Apr-26 14:28N 29°60' W 089°59'0 0.0
2015-Apr-26 13:19N 29°60' W 089°59'0 0.0
2015-Apr-26 12:04N 29°60' W 089°59'0 0.0
2015-Apr-26 11:32N 29°60' W 089°59'  
Track history (hours):
 
Tides and Currents Weather Stations Pressure Air Temp Water Temp Dewpoint Dewpoint Depression Visibility Wind Speed Wind Dir Waves Ship Positions

Jeanie G

Owner: MARTIN OPERATING PARTNERSHIP LP, VIDOR, TX. More information available from US FCC via Universal Licensing System and Coast Guard Vessel Documentation Center.

Last reported at 2015-May-03 16:08 UTC. Time now 2015-May-05 09:12 UTC.
Position N 29°32' W 090°51'.

MMSI: 366875010.

Date/timePositionNaut miles runAvg speedWind from/ knotsBaromVisibWave heightAir tempDewpointWater temp
2015-May-03 16:08N 29°32' W 090°51'3 4.8
2015-May-03 15:33N 29°32' W 090°48'3 2.9
2015-May-03 14:33N 29°33' W 090°45'2 2.1
2015-May-03 13:34N 29°34' W 090°43'3 2.6
2015-May-03 12:33N 29°37' W 090°42'5 5.0
2015-May-03 11:33N 29°35' W 090°37'6 5.7
2015-May-03 10:33N 29°34' W 090°31'6 5.6
2015-May-03 09:26N 29°34' W 090°23'22 3.5
2015-May-03 03:06N 29°48' W 090°04'6 3.8
2015-May-03 01:29N 29°55' W 090°05'0 0.2
2015-May-03 00:18N 29°55' W 090°05'1 1.0
2015-May-02 23:31N 29°55' W 090°04'3 3.5
2015-May-02 22:31N 29°58' W 090°02'0 0.4
2015-May-02 21:30N 29°58' W 090°02'0 0.0
2015-May-02 20:32N 29°58' W 090°02'0 0.0
2015-May-02 19:25N 29°58' W 090°02'1 1.6
2015-May-02 18:33N 29°60' W 090°01'0 0.0
2015-May-02 17:33N 29°60' W 090°01'0 0.3
2015-May-02 16:32N 29°60' W 090°01'0 0.0
2015-May-02 15:31N 29°60' W 090°01'0 0.0
2015-May-02 14:32N 29°60' W 090°01'0 0.0
2015-May-02 13:33N 29°60' W 090°01'0 0.0
2015-May-02 12:32N 29°60' W 090°01'0 0.0
2015-May-02 11:32N 29°60' W 090°01'0 0.0
2015-May-02 10:31N 29°60' W 090°01'0 0.0
2015-May-02 09:33N 29°60' W 090°01'0 0.0
2015-May-02 08:33N 29°60' W 090°01'0 0.0
2015-May-02 07:31N 29°60' W 090°01'0 0.0
2015-May-02 06:32N 29°60' W 090°01'0 0.0
2015-May-02 05:31N 29°60' W 090°01'0 0.0
2015-May-02 04:23N 29°60' W 090°01'0 0.0
2015-May-02 03:20N 29°60' W 090°01'0 0.0
2015-May-02 02:08N 29°60' W 090°01'0 0.0
2015-May-01 08:23N 29°60' W 090°00'0 0.0
2015-May-01 06:21N 29°60' W 090°00'0 0.0
2015-May-01 04:21N 29°60' W 090°00'0 0.0
2015-May-01 03:05N 29°60' W 090°00'0 0.3
2015-May-01 02:29N 29°60' W 090°00'6 5.9
2015-May-01 01:31N 30°01' W 089°54'3 0.1
2015-Apr-29 04:32N 30°02' W 089°50'5 5.1
2015-Apr-29 03:28N 30°00' W 089°56'4 4.8
2015-Apr-29 02:32N 29°59' W 090°01'2 1.7
2015-Apr-29 01:33N 29°58' W 090°02'0 0.0
2015-Apr-29 00:32N 29°58' W 090°02'0 0.0
2015-Apr-28 23:33N 29°58' W 090°02'2 2.1
2015-Apr-28 22:32N 29°56' W 090°00'0 0.0
2015-Apr-28 21:33N 29°56' W 090°00'0 0.0
2015-Apr-28 20:33N 29°56' W 089°60'2 1.6
2015-Apr-28 19:32N 29°56' W 089°58'0 0.0
2015-Apr-28 18:33N 29°56' W 089°58'0 0.0
2015-Apr-28 17:33N 29°56' W 089°58'0 0.0
2015-Apr-28 16:32N 29°56' W 089°58'0 0.0
2015-Apr-28 15:25N 29°56' W 089°58'0 0.0
2015-Apr-28 14:32N 29°56' W 089°58'0 0.2
2015-Apr-28 13:30N 29°56' W 089°58'0 0.2
2015-Apr-28 12:32N 29°56' W 089°58'4 0.1
2015-Apr-27 08:26N 29°58' W 090°02'0 0.0
2015-Apr-27 07:08N 29°58' W 090°02'0 0.3
2015-Apr-27 06:29N 29°58' W 090°02'3 2.1
2015-Apr-27 05:15N 29°60' W 089°59'0 0.0
2015-Apr-27 04:20N 29°60' W 089°59'0 0.0
2015-Apr-27 03:33N 29°60' W 089°59'0 0.0
2015-Apr-27 02:32N 29°60' W 089°59'0 0.0
2015-Apr-27 01:18N 29°60' W 089°59'0 0.0
2015-Apr-27 00:24N 29°60' W 089°59'0 0.0
2015-Apr-26 23:33N 29°60' W 089°59'0 0.0
2015-Apr-26 22:31N 29°60' W 089°59'0 0.0
2015-Apr-26 21:31N 29°60' W 089°59'0 0.0
2015-Apr-26 20:33N 29°60' W 089°59'0 0.0
2015-Apr-26 19:32N 29°60' W 089°59'0 0.0
2015-Apr-26 18:32N 29°60' W 089°59'0 0.0
2015-Apr-26 17:33N 29°60' W 089°59'0 0.0
2015-Apr-26 16:32N 29°60' W 089°59'0 0.0
2015-Apr-26 15:33N 29°60' W 089°59'0 0.0
2015-Apr-26 14:28N 29°60' W 089°59'0 0.0
2015-Apr-26 13:19N 29°60' W 089°59'0 0.0
2015-Apr-26 12:04N 29°60' W 089°59'0 0.0
2015-Apr-26 11:32N 29°60' W 089°59'  

Dump ship's entire track history